createdAt,value
2019-03-08T00:00:31.586Z,5.79
2019-03-08T00:03:38.674Z,5.73
2019-03-08T00:06:46.712Z,5.79
2019-03-08T00:09:53.196Z,5.76
2019-03-08T00:13:00.569Z,5.79
2019-03-08T00:16:07.189Z,5.63
2019-03-08T00:19:14.448Z,5.59
2019-03-08T00:22:21.460Z,5.43
2019-03-08T00:25:28.109Z,5.33
2019-03-08T00:28:34.550Z,5.35
2019-03-08T00:31:42.075Z,5.39
2019-03-08T00:34:48.504Z,5.29
2019-03-08T00:37:55.519Z,5.28
2019-03-08T00:41:02.107Z,5.18
2019-03-08T00:44:08.886Z,5.24
2019-03-08T00:47:15.149Z,5.22
2019-03-08T00:50:22.663Z,5.19
2019-03-08T00:53:28.950Z,5.11
2019-03-08T00:56:35.845Z,5.14
2019-03-08T00:59:42.600Z,5.05
2019-03-08T01:02:49.386Z,5.21
2019-03-08T01:05:55.946Z,5.25
2019-03-08T01:09:02.892Z,5.15
2019-03-08T01:12:11.526Z,5.30
2019-03-08T01:15:18.294Z,5.41
2019-03-08T01:18:25.141Z,5.33
2019-03-08T01:21:32.629Z,5.22
2019-03-08T01:24:39.283Z,5.20
2019-03-08T01:28:12.069Z,5.11
2019-03-08T01:31:18.999Z,5.25
2019-03-08T01:34:25.595Z,5.33
2019-03-08T01:37:32.050Z,5.36
2019-03-08T01:40:38.573Z,5.36
2019-03-08T01:43:45.411Z,5.34
2019-03-08T01:46:51.766Z,5.35
2019-03-08T01:49:58.664Z,5.39
2019-03-08T01:53:04.928Z,5.47
2019-03-08T01:56:11.281Z,5.40
2019-03-08T01:59:18.004Z,5.44
2019-03-08T02:02:25.949Z,5.44
2019-03-08T02:05:34.114Z,5.48
2019-03-08T02:08:41.981Z,5.59
2019-03-08T02:11:48.457Z,5.61
2019-03-08T02:14:54.822Z,5.63
2019-03-08T02:18:01.168Z,5.56
2019-03-08T02:21:08.026Z,5.61
2019-03-08T02:24:15.164Z,5.60
2019-03-08T02:27:21.904Z,5.59
2019-03-08T02:30:29.001Z,5.50
2019-03-08T02:33:35.376Z,5.57
2019-03-08T02:36:42.121Z,5.50
2019-03-08T02:39:49.430Z,5.52
2019-03-08T02:42:55.828Z,5.48
2019-03-08T02:46:02.590Z,5.52
2019-03-08T02:49:09.531Z,5.59
2019-03-08T02:52:16.193Z,5.64
2019-03-08T02:55:22.916Z,5.63
2019-03-08T02:58:30.028Z,5.68
2019-03-08T03:01:38.677Z,5.61
2019-03-08T03:04:45.538Z,5.71
2019-03-08T03:07:51.739Z,5.59
2019-03-08T03:10:58.660Z,5.62
2019-03-08T03:14:06.537Z,5.73
2019-03-08T03:17:14.813Z,5.64
2019-03-08T03:20:21.845Z,5.56
2019-03-08T03:23:28.144Z,5.50
2019-03-08T03:26:35.100Z,5.51
2019-03-08T03:29:41.714Z,5.50
2019-03-08T03:32:47.936Z,5.59
2019-03-08T03:35:55.724Z,5.55
2019-03-08T03:39:02.233Z,5.51
2019-03-08T03:42:10.231Z,5.60
2019-03-08T03:45:17.436Z,5.64
2019-03-08T03:48:23.894Z,5.70
2019-03-08T03:51:30.428Z,5.71
2019-03-08T03:54:37.437Z,5.83
2019-03-08T03:57:43.849Z,5.76
2019-03-08T04:00:50.334Z,5.67
2019-03-08T04:03:56.780Z,5.58
2019-03-08T04:07:03.260Z,5.53
2019-03-08T04:10:10.761Z,5.47
2019-03-08T04:13:17.888Z,5.42
2019-03-08T04:16:24.826Z,5.48
2019-03-08T04:19:31.517Z,5.54
2019-03-08T04:22:37.621Z,5.40
2019-03-08T04:25:44.264Z,5.29
2019-03-08T04:28:50.835Z,5.31
2019-03-08T04:31:57.269Z,5.26
2019-03-08T04:35:03.841Z,5.19
2019-03-08T04:38:10.564Z,5.35
2019-03-08T04:41:17.560Z,5.34
2019-03-08T04:44:24.165Z,5.32
2019-03-08T04:47:30.996Z,5.21
2019-03-08T04:50:37.196Z,5.22
2019-03-08T04:53:43.737Z,5.33
2019-03-08T04:56:50.489Z,5.42
2019-03-08T04:59:56.901Z,5.33
2019-03-08T05:03:03.818Z,5.29
2019-03-08T05:06:11.453Z,5.37
2019-03-08T05:09:17.930Z,5.35
2019-03-08T05:12:24.531Z,5.57
2019-03-08T05:15:31.314Z,5.52
2019-03-08T05:18:38.066Z,5.46
2019-03-08T05:21:45.019Z,5.38
2019-03-08T05:24:51.510Z,5.31
2019-03-08T05:27:58.392Z,5.26
2019-03-08T05:31:05.411Z,5.32
2019-03-08T05:34:12.007Z,5.17
2019-03-08T05:37:18.974Z,5.14
2019-03-08T05:40:25.629Z,5.15
2019-03-08T05:43:32.297Z,5.00
2019-03-08T05:46:38.998Z,4.89
2019-03-08T05:49:45.577Z,4.80
2019-03-08T05:52:52.719Z,4.88
2019-03-08T05:55:59.371Z,4.84
2019-03-08T05:59:06.144Z,4.90
2019-03-08T06:02:12.560Z,4.98
2019-03-08T06:05:18.957Z,4.98
2019-03-08T06:08:25.498Z,4.78
2019-03-08T06:11:32.012Z,4.78
2019-03-08T06:14:38.616Z,4.72
2019-03-08T06:17:45.751Z,4.86
2019-03-08T06:20:52.379Z,4.98
2019-03-08T06:23:59.091Z,4.93
2019-03-08T06:27:05.684Z,4.96
2019-03-08T06:30:12.507Z,5.12
2019-03-08T06:33:18.700Z,5.14
2019-03-08T06:36:25.419Z,5.02
2019-03-08T06:39:31.870Z,5.14
2019-03-08T06:42:39.262Z,5.14
2019-03-08T06:45:46.386Z,5.15
2019-03-08T06:48:53.168Z,5.31
2019-03-08T06:52:00.992Z,5.30
2019-03-08T06:55:07.922Z,5.35
2019-03-08T06:58:16.512Z,5.33
2019-03-08T07:01:27.164Z,5.44
2019-03-08T07:04:33.738Z,5.46
2019-03-08T07:07:40.904Z,5.50
2019-03-08T07:10:47.657Z,5.57
2019-03-08T07:13:54.379Z,5.55
2019-03-08T07:17:01.240Z,5.65
2019-03-08T07:20:42.716Z,5.61
2019-03-08T07:24:20.727Z,5.67
2019-03-08T07:27:41.223Z,5.67
2019-03-08T07:31:06.102Z,5.66
2019-03-08T07:34:22.519Z,5.73
2019-03-08T07:37:46.885Z,5.80
2019-03-08T07:41:03.703Z,5.92
2019-03-08T07:44:24.211Z,5.96
2019-03-08T07:47:48.150Z,5.94
2019-03-08T07:51:16.505Z,5.91
2019-03-08T07:54:52.697Z,5.83
2019-03-08T07:58:12.122Z,5.81
2019-03-08T08:01:28.974Z,5.86
2019-03-08T08:04:54.233Z,5.99
2019-03-08T08:08:08.615Z,6.03
2019-03-08T08:11:49.288Z,6.08
2019-03-08T08:15:11.845Z,6.12
2019-03-08T08:18:35.966Z,6.11
2019-03-08T08:22:00.804Z,6.25
2019-03-08T08:25:37.116Z,6.36
2019-03-08T08:29:02.601Z,6.28
2019-03-08T08:32:34.189Z,6.24
2019-03-08T08:36:14.768Z,6.23
2019-03-08T08:39:44.002Z,6.29
2019-03-08T08:43:09.091Z,6.28
2019-03-08T08:46:33.323Z,6.42
2019-03-08T08:50:08.059Z,6.40
2019-03-08T08:53:32.082Z,6.52
2019-03-08T08:57:09.300Z,6.52
2019-03-08T09:00:29.048Z,6.51
2019-03-08T09:04:03.315Z,6.69
2019-03-08T09:07:32.016Z,6.65
2019-03-08T09:11:01.788Z,6.75
2019-03-08T09:14:31.037Z,6.80
2019-03-08T09:17:55.160Z,7.12
2019-03-08T09:21:29.918Z,7.31
2019-03-08T09:24:58.263Z,7.85
2019-03-08T09:28:23.658Z,7.82
2019-03-08T09:31:49.037Z,7.82
2019-03-08T09:35:15.561Z,7.59
2019-03-08T09:38:32.623Z,7.10
2019-03-08T09:42:04.654Z,6.95
2019-03-08T09:45:37.728Z,7.24
2019-03-08T09:49:15.259Z,7.26
2019-03-08T09:52:37.809Z,7.23
2019-03-08T09:55:49.805Z,7.27
2019-03-08T09:59:21.486Z,7.10
2019-03-08T10:02:46.807Z,7.34
2019-03-08T10:05:59.890Z,7.27
2019-03-08T10:09:26.347Z,7.42
2019-03-08T10:12:40.593Z,7.58
2019-03-08T10:15:57.442Z,6.88
2019-03-08T10:19:25.708Z,6.81
2019-03-08T10:22:51.575Z,6.70
2019-03-08T10:26:26.321Z,6.91
2019-03-08T10:29:54.778Z,7.34
2019-03-08T10:33:29.195Z,7.83
2019-03-08T10:36:55.071Z,7.94
2019-03-08T10:40:08.655Z,7.87
2019-03-08T10:43:28.562Z,7.83
2019-03-08T10:46:53.067Z,8.04
2019-03-08T10:50:11.006Z,8.19
2019-03-08T10:53:34.947Z,8.19
2019-03-08T10:56:49.849Z,7.92
2019-03-08T11:00:22.282Z,7.72
2019-03-08T11:03:48.136Z,7.19
2019-03-08T11:07:16.901Z,7.12
2019-03-08T11:10:43.826Z,7.10
2019-03-08T11:14:11.090Z,7.35
2019-03-08T11:17:26.402Z,7.28
2019-03-08T11:20:53.200Z,7.48
2019-03-08T11:24:19.322Z,7.68
2019-03-08T11:27:36.421Z,7.30
2019-03-08T11:31:00.832Z,7.60
2019-03-08T11:34:38.873Z,7.37
2019-03-08T11:38:07.361Z,7.56
2019-03-08T11:41:37.952Z,7.69
2019-03-08T11:45:09.563Z,7.59
2019-03-08T11:48:29.026Z,8.13
2019-03-08T11:52:07.051Z,8.31
2019-03-08T11:55:42.570Z,8.29
2019-03-08T11:59:01.359Z,7.82
2019-03-08T12:02:25.623Z,7.61
2019-03-08T12:05:49.979Z,7.80
2019-03-08T12:09:15.908Z,8.35
2019-03-08T12:12:46.950Z,8.48
2019-03-08T12:16:11.398Z,8.70
2019-03-08T12:19:39.020Z,9.13
2019-03-08T12:23:03.159Z,8.94
2019-03-08T12:26:27.139Z,9.60
2019-03-08T12:30:10.688Z,9.92
2019-03-08T12:33:36.434Z,10.07
2019-03-08T12:37:05.010Z,9.88
2019-03-08T12:40:30.870Z,9.50
2019-03-08T12:44:10.071Z,8.69
2019-03-08T12:47:27.595Z,8.63
2019-03-08T12:50:52.644Z,8.60
2019-03-08T12:54:26.805Z,8.61
2019-03-08T12:58:10.559Z,8.07
2019-03-08T13:01:34.908Z,8.35
2019-03-08T13:05:06.692Z,8.23
2019-03-08T13:08:25.406Z,8.54
2019-03-08T13:11:33.509Z,8.76
2019-03-08T13:14:41.207Z,8.89
2019-03-08T13:17:48.033Z,8.66
2019-03-08T13:20:54.440Z,8.82
2019-03-08T13:24:01.002Z,8.99
2019-03-08T13:27:07.847Z,8.84
2019-03-08T13:30:17.192Z,8.92
2019-03-08T13:33:23.876Z,8.88
2019-03-08T13:36:30.490Z,9.00
2019-03-08T13:39:38.039Z,8.79
2019-03-08T13:42:45.388Z,8.39
2019-03-08T13:45:51.819Z,8.28
2019-03-08T13:48:59.066Z,8.11
2019-03-08T13:52:06.198Z,7.72
2019-03-08T13:55:14.560Z,7.51
2019-03-08T13:58:21.929Z,7.58
2019-03-08T14:01:28.578Z,7.98
2019-03-08T14:04:35.700Z,8.17
2019-03-08T14:07:43.539Z,8.26
2019-03-08T14:10:50.299Z,8.18
2019-03-08T14:13:57.965Z,7.90
2019-03-08T14:17:05.673Z,7.84
2019-03-08T14:20:15.229Z,8.04
2019-03-08T14:23:22.310Z,8.05
2019-03-08T14:26:29.230Z,8.19
2019-03-08T14:29:40.842Z,8.37
2019-03-08T14:32:47.239Z,8.36
2019-03-08T14:35:54.573Z,8.18
2019-03-08T14:39:04.181Z,8.32
2019-03-08T14:42:29.479Z,7.89
2019-03-08T14:45:45.971Z,7.82
2019-03-08T14:48:52.968Z,7.44
2019-03-08T14:51:59.619Z,7.58
2019-03-08T14:55:07.931Z,7.69
2019-03-08T14:58:15.125Z,7.79
2019-03-08T15:01:25.549Z,7.75
2019-03-08T15:04:33.171Z,7.75
2019-03-08T15:07:42.139Z,7.87
2019-03-08T15:10:51.327Z,8.01
2019-03-08T15:13:59.075Z,7.85
2019-03-08T15:17:09.057Z,7.76
2019-03-08T15:20:16.261Z,7.85
2019-03-08T15:23:23.601Z,7.65
2019-03-08T15:26:30.679Z,7.64
2019-03-08T15:29:37.858Z,7.47
2019-03-08T15:32:45.115Z,7.30
2019-03-08T15:35:51.834Z,7.18
2019-03-08T15:38:59.177Z,7.28
2019-03-08T15:42:05.680Z,7.26
2019-03-08T15:45:12.615Z,7.22
2019-03-08T15:48:19.639Z,7.17
2019-03-08T15:51:30.194Z,7.18
2019-03-08T15:54:37.010Z,7.22
2019-03-08T15:57:43.360Z,7.11
2019-03-08T16:00:50.344Z,7.08
2019-03-08T16:03:57.192Z,6.93
2019-03-08T16:07:03.814Z,6.73
2019-03-08T16:10:11.517Z,6.72
2019-03-08T16:13:18.932Z,6.69
2019-03-08T16:16:25.542Z,6.68
2019-03-08T16:19:32.524Z,6.57
2019-03-08T16:22:39.315Z,6.40
2019-03-08T16:25:47.906Z,6.25
2019-03-08T16:28:54.525Z,6.19
2019-03-08T16:32:23.050Z,6.08
2019-03-08T16:35:37.488Z,6.00
2019-03-08T16:39:02.092Z,5.83
2019-03-08T16:42:37.710Z,5.69
2019-03-08T16:46:16.178Z,5.51
2019-03-08T16:49:38.995Z,5.35
2019-03-08T16:53:07.661Z,5.18
2019-03-08T16:56:33.049Z,4.88
2019-03-08T17:00:03.751Z,4.84
2019-03-08T17:03:35.422Z,4.66
2019-03-08T17:07:07.143Z,4.41
2019-03-08T17:10:51.587Z,4.39
2019-03-08T17:14:07.181Z,4.31
2019-03-08T17:17:45.513Z,3.97
2019-03-08T17:21:10.127Z,3.97
2019-03-08T17:24:39.643Z,3.77
2019-03-08T17:28:10.004Z,3.83
2019-03-08T17:31:35.411Z,3.73
2019-03-08T17:34:55.901Z,3.59
2019-03-08T17:38:18.376Z,3.71
2019-03-08T17:41:43.682Z,3.75
2019-03-08T17:45:07.873Z,3.65
2019-03-08T17:48:38.873Z,3.63
2019-03-08T17:51:53.535Z,3.62
2019-03-08T17:55:22.801Z,3.54
2019-03-08T17:59:07.721Z,3.46
2019-03-08T18:02:37.854Z,3.40
2019-03-08T18:06:05.828Z,3.24
2019-03-08T18:09:37.699Z,3.24
2019-03-08T18:13:02.387Z,3.37
2019-03-08T18:16:20.216Z,3.35
2019-03-08T18:19:39.574Z,3.12
2019-03-08T18:23:08.540Z,3.07
2019-03-08T18:26:20.630Z,2.94
2019-03-08T18:29:48.797Z,2.77
2019-03-08T18:33:14.474Z,2.60
2019-03-08T18:36:53.045Z,2.65
2019-03-08T18:40:21.893Z,2.42
2019-03-08T18:43:55.282Z,2.35
2019-03-08T18:47:20.948Z,2.29
2019-03-08T18:50:59.079Z,2.25
2019-03-08T18:54:20.322Z,2.22
2019-03-08T18:57:49.714Z,2.17
2019-03-08T19:01:14.453Z,2.07
2019-03-08T19:04:39.186Z,2.13
2019-03-08T19:08:03.396Z,2.05
2019-03-08T19:11:32.468Z,2.05
2019-03-08T19:15:03.586Z,1.88
2019-03-08T19:18:36.379Z,1.89
2019-03-08T19:21:53.894Z,1.88
2019-03-08T19:25:18.290Z,1.96
2019-03-08T19:28:56.660Z,1.69
2019-03-08T19:32:31.369Z,1.64
2019-03-08T19:35:53.139Z,1.57
2019-03-08T19:39:21.454Z,1.48
2019-03-08T19:42:44.037Z,1.56
2019-03-08T19:46:09.700Z,1.57
2019-03-08T19:49:39.137Z,1.86
2019-03-08T19:53:03.709Z,2.15
2019-03-08T19:56:20.984Z,2.63
2019-03-08T19:59:44.704Z,2.85
2019-03-08T20:03:22.872Z,3.00
2019-03-08T20:07:06.664Z,2.95
2019-03-08T20:10:32.457Z,3.35
2019-03-08T20:13:58.408Z,3.46
2019-03-08T20:17:30.317Z,3.53
2019-03-08T20:20:57.720Z,3.38
2019-03-08T20:24:23.685Z,3.44
2019-03-08T20:28:01.564Z,3.58
2019-03-08T20:31:27.705Z,3.71
2019-03-08T20:34:52.755Z,3.74
2019-03-08T20:38:17.674Z,3.75
2019-03-08T20:41:34.069Z,3.93
2019-03-08T20:44:45.049Z,4.15
2019-03-08T20:47:51.716Z,4.21
2019-03-08T20:50:58.662Z,4.15
2019-03-08T20:54:05.956Z,4.28
2019-03-08T20:57:12.620Z,4.33
2019-03-08T21:00:19.380Z,4.35
2019-03-08T21:03:26.194Z,4.40
2019-03-08T21:06:33.568Z,4.46
2019-03-08T21:09:40.550Z,4.42
2019-03-08T21:12:48.350Z,4.35
2019-03-08T21:15:55.210Z,4.33
2019-03-08T21:19:02.268Z,4.44
2019-03-08T21:22:09.512Z,4.50
2019-03-08T21:25:16.408Z,4.58
2019-03-08T21:28:23.040Z,4.69
2019-03-08T21:31:30.695Z,4.73
2019-03-08T21:34:37.925Z,4.76
2019-03-08T21:37:45.263Z,4.80
2019-03-08T21:40:51.635Z,4.80
2019-03-08T21:43:58.263Z,4.74
2019-03-08T21:47:05.484Z,4.60
2019-03-08T21:50:13.226Z,4.50
2019-03-08T21:53:19.619Z,4.37
2019-03-08T21:56:25.909Z,4.34
2019-03-08T21:59:32.755Z,4.28
2019-03-08T22:02:39.517Z,4.33
2019-03-08T22:05:46.499Z,4.35
2019-03-08T22:09:01.420Z,4.20
2019-03-08T22:12:10.217Z,4.12
2019-03-08T22:15:16.662Z,4.15
2019-03-08T22:18:24.917Z,4.21
2019-03-08T22:21:32.154Z,4.19
2019-03-08T22:24:38.788Z,4.18
2019-03-08T22:27:46.492Z,4.11
2019-03-08T22:30:53.084Z,4.19
2019-03-08T22:34:01.944Z,4.06
2019-03-08T22:37:08.360Z,3.87
2019-03-08T22:40:14.913Z,3.87
2019-03-08T22:43:21.648Z,3.90
2019-03-08T22:46:28.446Z,3.82
2019-03-08T22:49:35.222Z,3.82
2019-03-08T22:52:43.405Z,3.91
2019-03-08T22:55:50.330Z,3.68
2019-03-08T22:58:57.291Z,3.65
2019-03-08T23:02:09.278Z,3.70
2019-03-08T23:05:15.809Z,3.51
2019-03-08T23:08:22.918Z,3.49
2019-03-08T23:11:29.121Z,3.37
2019-03-08T23:14:35.812Z,3.29
2019-03-08T23:17:43.820Z,3.14
2019-03-08T23:20:50.658Z,3.19
2019-03-08T23:23:57.042Z,3.24
2019-03-08T23:27:23.512Z,3.59
2019-03-08T23:30:30.880Z,3.81
2019-03-08T23:33:37.522Z,3.83
2019-03-08T23:36:44.146Z,3.86
2019-03-08T23:39:50.861Z,3.93
2019-03-08T23:42:57.259Z,3.98
2019-03-08T23:46:03.717Z,3.94
2019-03-08T23:49:10.254Z,4.00
2019-03-08T23:52:16.952Z,4.07
2019-03-08T23:55:23.346Z,3.99
2019-03-08T23:58:30.007Z,4.07
